Latest Weather Observations for Evans Head

IDN60801

Issued at 5:02 pm EDT Thursday 2 April 2015 (issued every 30 minutes, with the page automatically refreshed every 10 minutes)

About weather observations | Map of weather stations | Latest weather observations for NSW | Other Formats
Station Details ID: 058212 Name: EVANS HEAD RAAF BOMBING RANGE AWS Lat: -29.18 Lon: 153.40 Height: 62.5 m
Data from the previous 72 hours. | See also: Recent months at Evans Head
Date/Time
EDT
Temp
°C
App
Temp
°C
Dew
Point
Rel
Hum
%
Delta-T
°C
Wind Press
QNH
hPa
Press
MSL
hPa
Rain
since 9 am
mm
Dir
 
Spd
km/h
Gust
km/h
Spd
kts
Gust
kts
02/05:00pm 23.7 25.5 20.4 82 2.1 NE 11 15 6 8 1018.0 1017.8 1.2
02/04:30pm 24.5 25.3 19.8 75 3.0 ENE 15 20 8 11 1017.7 1017.5 1.2
02/04:00pm 25.4 26.2 19.8 71 3.6 ENE 15 22 8 12 1017.7 1017.5 1.2
02/03:30pm 25.8 26.9 20.4 72 3.5 ENE 15 22 8 12 1017.8 1017.6 1.2
02/03:00pm 25.8 26.2 19.9 70 3.8 ENE 17 22 9 12 1018.0 1017.8 1.2
02/02:30pm 26.3 27.0 20.4 70 3.9 E 17 22 9 12 1018.3 1018.1 1.2
02/02:00pm 26.5 27.5 21.0 72 3.6 E 17 26 9 14 1018.5 1018.3 1.2
02/01:30pm 26.2 26.8 20.3 70 3.9 ENE 17 22 9 12 1018.9 1018.7 1.2
02/01:00pm 25.9 26.7 20.7 73 3.4 E 17 26 9 14 1019.4 1019.2 1.2
02/12:30pm 24.9 27.0 21.0 79 2.6 SE 11 17 6 9 1019.8 1019.6 1.2
02/12:00pm 25.2 28.5 22.5 85 1.8 SSE 9 17 5 9 1020.3 1020.1 1.2
02/11:30am 24.3 28.7 23.8 97 0.3 SSE 7 15 4 8 1020.6 1020.4 1.2
02/11:00am 23.0 26.7 22.5 97 0.3 SSE 7 11 4 6 1020.8 1020.6 1.2
02/10:30am 22.5 25.6 22.2 98 0.2 S 9 11 5 6 1021.1 1020.9 1.2
02/10:00am 22.1 24.9 21.6 97 0.3 SSW 9 13 5 7 1020.8 1020.6 0.0
02/09:30am 21.9 24.3 21.6 98 0.2 SW 11 15 6 8 1020.7 1020.5 0.0
02/09:00am 20.8 22.7 20.6 99 0.1 SW 11 13 6 7 1020.6 1020.4 4.6
02/08:30am 19.7 21.5 19.5 99 0.1 WSW 9 13 5 7 1020.3 1020.1 4.6
02/08:00am 18.6 19.1 18.4 99 0.1 W 13 17 7 9 1020.0 1019.8 4.6
02/07:30am 18.2 18.5 18.0 99 0.1 W 13 17 7 9 1019.8 1019.6 4.6
02/07:00am 17.8 18.0 17.6 99 0.1 WSW 13 17 7 9 1019.6 1019.4 4.2
02/06:30am 17.9 18.9 17.7 99 0.1 W 9 13 5 7 1019.5 1019.3 4.2
02/06:00am 17.9 18.1 17.7 99 0.1 WSW 13 17 7 9 1019.2 1019.0 4.2
02/05:30am 18.2 19.3 17.9 98 0.2 WSW 9 15 5 8 1019.2 1019.0 4.2
02/05:00am 18.0 18.2 17.7 98 0.2 WSW 13 15 7 8 1019.1 1018.9 3.8
02/04:30am 18.4 18.8 18.1 98 0.2 W 13 17 7 9 1019.2 1019.0 3.8
02/04:00am 18.8 19.7 18.5 98 0.2 W 11 15 6 8 1019.3 1019.1 3.8
02/03:30am 19.8 21.9 19.3 97 0.3 NNW 7 13 4 7 1019.6 1019.4 3.8
02/03:00am 20.1 22.6 19.8 98 0.2 NE 6 15 3 8 1019.8 1019.6 3.8
02/02:30am 19.1 21.9 18.8 98 0.2 NNW 2 9 1 5 1020.1 1019.9 3.8
02/02:00am 18.8 20.7 18.5 98 0.2 NW 6 9 3 5 1020.8 1020.6 3.8
02/01:30am 18.8 19.4 18.5 98 0.2 WSW 13 17 7 9 1021.0 1020.8 3.8
02/01:00am 19.0 19.3 18.7 98 0.2 WSW 15 17 8 9 1021.4 1021.2 3.8
02/12:30am 19.0 19.3 18.7 98 0.2 WSW 15 17 8 9 1021.6 1021.4 3.8
02/12:00am 19.0 19.6 18.7 98 0.2 WSW 13 13 7 7 1021.8 1021.6 3.8
 
Date/Time
EDT
Temp
°C
App
Temp
°C
Dew
Point
Rel
Hum
%
Delta-T
°C
Wind Press
QNH
hPa
Press
MSL
hPa
Rain
since 9 am
mm
Dir
 
Spd
km/h
Gust
km/h
Spd
kts
Gust
kts
01/11:30pm 19.1 20.6 18.8 98 0.2 WSW 9 13 5 7 1022.0 1021.8 3.8
01/11:00pm 19.5 21.1 19.2 98 0.2 SW 9 9 5 5 1022.1 1021.9 3.8
01/10:30pm 19.7 21.8 19.4 98 0.2 SE 7 13 4 7 1022.6 1022.4 3.6
01/10:00pm 19.9 20.5 19.4 97 0.3 SE 15 24 8 13 1022.5 1022.3 2.4
01/09:30pm 20.3 19.7 19.8 97 0.3 ENE 22 37 12 20 1022.4 1022.2 2.2
01/09:00pm 22.2 21.3 15.8 67 3.8 SE 15 19 8 10 1021.9 1021.7 2.2
01/08:30pm 21.7 21.8 16.4 72 3.2 SE 11 15 6 8 1021.6 1021.4 2.2
01/08:00pm 21.8 21.3 14.9 65 4.1 ESE 11 17 6 9 1021.4 1021.2 2.2
01/07:30pm 22.1 21.6 15.9 68 3.7 ESE 13 20 7 11 1021.0 1020.8 2.2
01/07:00pm 22.4 21.7 16.4 69 3.6 ESE 15 20 8 11 1020.8 1020.6 2.2
01/06:30pm 22.5 22.0 17.0 71 3.4 ESE 15 24 8 13 1020.6 1020.4 2.2
01/06:00pm 22.9 22.9 17.1 70 3.6 ESE 13 19 7 10 1020.5 1020.3 2.2
01/05:30pm 23.4 22.7 16.4 64 4.3 E 15 19 8 10 1020.5 1020.3 2.2
01/05:00pm 24.1 22.8 15.9 60 5.0 ESE 17 24 9 13 1020.3 1020.1 2.2
01/04:30pm 24.6 23.2 15.5 57 5.5 ESE 17 26 9 14 1020.3 1020.1 2.2
01/04:00pm 24.7 22.8 15.3 56 5.7 ESE 19 28 10 15 1020.4 1020.2 2.2
01/03:30pm 24.9 23.2 15.8 57 5.5 E 19 28 10 15 1020.6 1020.4 2.2
01/03:00pm 25.2 24.1 17.4 62 4.9 ESE 19 28 10 15 1021.0 1020.8 2.2
01/02:30pm 25.3 24.2 17.7 62 4.8 ESE 20 32 11 17 1021.1 1020.9 2.2
01/02:00pm 25.8 25.6 18.5 64 4.6 ESE 17 26 9 14 1021.6 1021.4 2.2
01/01:30pm 23.9 25.3 21.0 84 1.9 S 15 20 8 11 1022.1 1021.9 2.2
01/01:00pm 23.9 25.3 21.8 88 1.4 S 17 22 9 12 1022.6 1022.4 2.2
01/12:30pm 22.9 23.7 19.9 83 1.9 S 15 22 8 12 1023.1 1022.9 2.2
01/12:00pm 23.6 25.0 20.3 82 2.1 S 13 17 7 9 1023.5 1023.3 2.2
01/11:30am 23.0 25.7 20.7 87 1.5 SSW 7 11 4 6 1023.9 1023.7 2.2
01/11:00am 22.1 25.4 21.8 98 0.2 SSW 7 13 4 7 1024.0 1023.8 2.2
01/10:30am 20.5 23.2 20.3 99 0.1 SW 6 11 3 6 1024.4 1024.2 2.2
01/10:00am 20.0 22.0 20.0 100 0.0 WSW 9 15 5 8 1024.4 1024.2 2.2
01/09:30am 18.8 19.5 18.8 100 0.0 SSE 13 22 7 12 1024.5 1024.3 2.0
01/09:00am 18.9 20.4 18.9 100 0.0 WSW 9 17 5 9 1024.2 1024.0 18.0
01/08:30am 18.5 19.4 18.5 100 0.0 SW 11 19 6 10 1024.0 1023.8 18.0
01/08:00am 18.2 19.0 18.2 100 0.0 SW 11 17 6 9 1023.7 1023.5 18.0
01/07:30am 18.2 19.4 18.2 100 0.0 SSW 9 15 5 8 1023.6 1023.3 17.6
01/07:00am 18.1 19.5 17.9 99 0.1 WSW 7 11 4 6 1023.2 1022.9 13.8
01/06:30am 18.1 19.2 17.9 99 0.1 W 9 13 5 7 1022.8 1022.5 12.6
01/06:00am 18.2 19.7 18.0 99 0.1 W 7 11 4 6 1022.5 1022.2 8.6
01/05:30am 18.2 18.9 18.0 99 0.1 WSW 11 15 6 8 1022.1 1021.8 7.8
01/05:00am 18.4 19.6 18.2 99 0.1 W 9 11 5 6 1021.9 1021.6 7.4
01/04:30am 18.5 20.1 18.3 99 0.1 SSW 7 9 4 5 1022.0 1021.7 5.2
01/04:00am 18.6 19.9 18.4 99 0.1 W 9 13 5 7 1021.7 1021.4 4.8
01/03:30am 18.2 19.9 18.0 99 0.1 NE 6 11 3 6 1021.9 1021.6 4.8
01/03:00am 18.5 20.1 18.3 99 0.1 NNW 7 9 4 5 1021.9 1021.6 4.4
01/02:30am 18.5 19.7 18.3 99 0.1 NNW 9 13 5 7 1022.3 1022.0 4.4
01/02:00am 18.8 19.4 18.6 99 0.1 NNE 13 17 7 9 1022.9 1022.6 4.4
01/01:30am 19.4 21.0 19.2 99 0.1 NE 9 15 5 8 1023.3 1023.0 4.4
01/01:00am 19.4 21.6 19.2 99 0.1 NNE 6 11 3 6 1023.4 1023.1 4.4
01/12:30am 19.8 22.5 19.5 98 0.2 NNW 4 7 2 4 1023.4 1023.1 3.4
01/12:00am 19.7 21.8 19.4 98 0.2 NNE 7 11 4 6 1023.4 1023.1 3.4
 
Date/Time
EDT
Temp
°C
App
Temp
°C
Dew
Point
Rel
Hum
%
Delta-T
°C
Wind Press
QNH
hPa
Press
MSL
hPa
Rain
since 9 am
mm
Dir
 
Spd
km/h
Gust
km/h
Spd
kts
Gust
kts
31/11:30pm 19.5 20.0 19.2 98 0.2 ENE 15 24 8 13 1023.6 1023.3 3.4
31/11:00pm 19.3 20.1 19.0 98 0.2 ENE 13 19 7 10 1023.6 1023.3 3.2
31/10:30pm 19.0 19.3 18.7 98 0.2 NE 15 26 8 14 1023.8 1023.6 2.6
31/10:00pm 19.5 20.8 19.2 98 0.2 NE 11 20 6 11 1023.8 1023.6 2.2
31/09:30pm 20.1 20.5 19.8 98 0.2 ENE 17 30 9 16 1023.9 1023.7 2.2
31/09:17pm 20.7 19.3 20.4 98 0.2 ESE 28 43 15 23 1023.8 1023.6 1.8
31/09:00pm 21.7 22.2 20.0 90 1.1 SE 17 22 9 12 1023.6 1023.3 1.0
31/08:30pm 21.0 21.0 18.9 88 1.3 SSE 17 28 9 15 1023.3 1023.0 1.0
31/08:00pm 21.2 20.0 18.4 84 1.7 SSE 22 30 12 16 1022.8 1022.5 1.0
31/07:30pm 21.3 20.3 17.9 81 2.1 SE 20 30 11 16 1022.8 1022.5 1.0
31/07:00pm 20.6 20.4 18.5 88 1.3 SSE 17 24 9 13 1022.5 1022.2 1.0
31/06:30pm 21.6 22.0 20.6 94 0.6 S 19 24 10 13 1022.2 1021.9 1.0
31/06:00pm 21.7 21.8 20.0 90 1.1 S 19 26 10 14 1021.9 1021.6 1.0
31/05:30pm 22.0 22.8 19.9 88 1.3 S 15 20 8 11 1021.8 1021.5 1.0
31/05:00pm 22.8 23.8 19.4 81 2.2 S 13 20 7 11 1021.8 1021.5 1.0
31/04:30pm 24.5 25.5 20.2 77 2.8 S 15 19 8 10 1021.7 1021.4 1.0
31/04:00pm 23.7 25.0 19.4 77 2.7 SSE 11 19 6 10 1021.7 1021.4 1.0
31/03:30pm 23.8 26.5 22.1 90 1.1 SSW 11 17 6 9 1021.8 1021.5 1.0
31/03:00pm 22.1 24.9 21.6 97 0.3 SSW 9 13 5 7 1021.9 1021.6 1.0
31/02:30pm 22.0 26.2 21.0 94 0.7 CALM 0 0 0 0 1022.3 1022.0 1.0
31/02:00pm 21.9 25.9 21.4 97 0.3 N 2 7 1 4 1022.5 1022.2 1.0
31/01:30pm 22.1 25.4 21.8 98 0.2 N 7 9 4 5 1022.7 1022.4 1.0
31/01:00pm 21.4 23.9 21.1 98 0.2 N 9 13 5 7 1023.4 1023.1 1.0
31/12:30pm 20.5 23.0 20.2 98 0.2 E 7 9 4 5 1023.8 1023.6 1.0
31/12:00pm 19.8 20.8 19.5 98 0.2 SE 13 17 7 9 1024.4 1024.2 0.8
31/11:30am 20.0 21.0 19.5 97 0.3 SE 13 17 7 9 1024.8 1024.6 0.2
31/11:00am 19.9 20.4 19.2 96 0.4 E 15 20 8 11 1024.8 1024.6 0.2
31/10:30am 20.2 21.7 19.7 97 0.3 SE 11 17 6 9 1024.7 1024.5 0.2
31/10:00am 20.2 22.2 19.9 98 0.2 S 9 15 5 8 1024.5 1024.3 0.2
31/09:30am 18.7 19.6 18.4 98 0.2 E 11 17 6 9 1024.5 1024.3 0.2
31/09:00am 20.7 22.4 20.2 97 0.3 S 11 15 6 8 1024.1 1023.9 0.0
31/08:30am 20.0 21.4 19.5 97 0.3 SW 11 15 6 8 1023.2 1022.9 0.0
31/08:00am 19.6 20.8 19.1 97 0.3 W 11 15 6 8 1023.0 1022.7 0.0
31/07:30am 19.5 20.4 19.2 98 0.2 SW 13 19 7 10 1022.6 1022.3 0.0
31/07:00am 19.2 19.9 18.9 98 0.2 WSW 13 15 7 8 1022.5 1022.2 0.0
31/06:30am 19.1 20.1 18.6 97 0.3 WSW 11 15 6 8 1022.2 1021.9 0.0
31/06:00am 19.1 19.7 18.6 97 0.3 W 13 15 7 8 1022.2 1021.9 0.0
31/05:30am 19.4 20.4 18.6 95 0.5 WSW 11 13 6 7 1022.2 1021.9 0.0
31/05:00am 19.7 20.7 17.8 89 1.2 SW 9 13 5 7 1022.0 1021.7 0.0
31/04:30am 19.6 20.8 17.4 87 1.3 SW 7 11 4 6 1022.1 1021.8 0.0
31/04:00am 19.9 21.2 17.5 86 1.5 NNW 7 9 4 5 1022.2 1021.9 0.0
31/03:30am 19.7 21.0 17.5 87 1.3 NNW 7 9 4 5 1022.3 1022.0 0.0
31/03:00am 19.8 21.1 17.6 87 1.3 NNW 7 9 4 5 1022.5 1022.2 0.0
31/02:30am 19.4 20.7 17.5 89 1.2 N 7 7 4 4 1022.4 1022.1 0.0
31/02:00am 19.2 20.0 17.2 88 1.2 N 9 11 5 6 1022.8 1022.5 0.0
31/01:30am 19.3 19.8 16.5 84 1.7 N 9 11 5 6 1023.0 1022.7 0.0
31/01:00am 19.6 20.1 16.6 83 1.8 N 9 13 5 7 1023.1 1022.8 0.0
31/12:30am 20.0 20.5 16.6 81 2.1 N 9 20 5 11 1023.2 1022.9 0.0
31/12:00am 20.8 20.9 16.6 77 2.5 NNE 11 15 6 8 1023.3 1023.0 0.0
 
Date/Time
EDT
Temp
°C
App
Temp
°C
Dew
Point
Rel
Hum
%
Delta-T
°C
Wind Press
QNH
hPa
Press
MSL
hPa
Rain
since 9 am
mm
Dir
 
Spd
km/h
Gust
km/h
Spd
kts
Gust
kts
30/11:30pm 21.0 21.5 16.6 76 2.7 NNE 9 13 5 7 1023.5 1023.2 0.0
30/11:00pm 21.2 21.3 16.6 75 2.8 NNE 11 15 6 8 1023.7 1023.5 0.0
30/10:30pm 21.4 21.5 16.4 73 3.0 NNE 11 17 6 9 1023.7 1023.5 0.0
30/10:00pm 21.7 21.7 16.2 71 3.3 NNE 11 17 6 9 1023.9 1023.7 0.0
30/09:30pm 22.0 22.1 16.5 71 3.3 NNE 11 17 6 9 1023.7 1023.5 0.0
30/09:00pm 22.0 22.1 16.5 71 3.3 NNE 11 17 6 9 1023.5 1023.2 0.0
30/08:30pm 21.9 21.6 16.4 71 3.3 NNE 13 17 7 9 1023.3 1023.0 0.0
30/08:00pm 21.8 21.6 16.7 73 3.1 NNE 13 19 7 10 1023.1 1022.8 0.0
30/07:30pm 21.9 21.4 16.8 73 3.1 NNE 15 22 8 12 1022.4 1022.1 0.0
30/07:00pm 21.8 21.3 17.0 74 2.9 NNE 15 19 8 10 1022.3 1022.0 0.0
30/06:30pm 22.1 22.2 17.5 75 2.8 NNE 13 20 7 11 1022.1 1021.8 0.0
30/06:00pm 22.8 22.8 17.3 71 3.4 NNE 13 22 7 12 1021.9 1021.6 0.0
30/05:30pm 23.8 23.7 17.8 69 3.8 NNE 15 24 8 13 1021.5 1021.2 0.0

Other Formats:

Comma delimited format used in spreadsheet applications
http://www.bom.gov.au/fwo/IDN60801/IDN60801.94598.axf

JavaScript Object Notation format (JSON) in row-major order
http://www.bom.gov.au/fwo/IDN60801/IDN60801.94598.json